PILOTS ONLINE: 208    ATC ONLINE: 13

KSKA

Fairchild Air Force Base

Location

IATA SKA
City Spokane
Country  United States
Latitude 47° 36' 54" N
Longitude 117° 39' 21" W
Elevation 2461 ft
Type Large Airport

Map

Weather

METAR
2014/09/23 03:58
KSKA 230358Z AUTO 18003KT 10SM BKN110 20/10 A2992 RMK AO2 SLP124 T01980098
TAF
2014/09/23 03:06
TAF KSKA 2303/2409 20009KT 9999 BKN100 QNH2991INS 
      TEMPO 2303/2305 9000 -TSRA BKN030CB OVC100 
      BECMG 2310/2311 20009KT 9000 -RA BKN060 OVC080 QNH2992INS 
      BECMG 2313/2314 14009KT 9999 NSW BKN110 QNH2985INS TX24/2321Z TN17/2312Z

Runways

05/23 13901 ft / 200 ft

Outbound flights

Callsign Flying to Pilot ATD/STD ETA Aircraft

Inbound flights

Callsign Flying from Pilot ATD ETA Aircraft